sensor_id;sensor_type;location;lat;lon;timestamp;pressure;altitude;pressure_sealevel;temperature;humidity
74218;BME280;62579;47.288;18.646;2022-12-15T00:00:46;98903.69;;;0.16;87.31
74218;BME280;62579;47.288;18.646;2022-12-15T00:03:30;98914.06;;;0.23;87.00
74218;BME280;62579;47.288;18.646;2022-12-15T00:06:14;98913.03;;;0.21;86.89
74218;BME280;62579;47.288;18.646;2022-12-15T00:08:58;98908.88;;;0.20;87.10
74218;BME280;62579;47.288;18.646;2022-12-15T00:11:42;98907.09;;;0.17;87.60
74218;BME280;62579;47.288;18.646;2022-12-15T00:14:26;98911.72;;;0.16;87.64
74218;BME280;62579;47.288;18.646;2022-12-15T00:17:10;98918.81;;;0.19;87.67
74218;BME280;62579;47.288;18.646;2022-12-15T00:19:54;98911.56;;;0.11;87.87
74218;BME280;62579;47.288;18.646;2022-12-15T00:22:38;98914.38;;;0.07;88.21
74218;BME280;62579;47.288;18.646;2022-12-15T00:25:22;98925.38;;;0.18;87.81
74218;BME280;62579;47.288;18.646;2022-12-15T00:28:06;98926.13;;;0.19;87.59
74218;BME280;62579;47.288;18.646;2022-12-15T00:30:50;98922.25;;;0.20;87.74
74218;BME280;62579;47.288;18.646;2022-12-15T00:33:34;98931.31;;;0.22;87.80
74218;BME280;62579;47.288;18.646;2022-12-15T00:36:18;98936.66;;;0.22;87.44
74218;BME280;62579;47.288;18.646;2022-12-15T00:39:02;98940.81;;;0.23;87.62
74218;BME280;62579;47.288;18.646;2022-12-15T00:41:27;98941.56;;;0.15;87.87
74218;BME280;62579;47.288;18.646;2022-12-15T00:43:52;98938.28;;;0.20;87.65
74218;BME280;62579;47.288;18.646;2022-12-15T00:46:18;98934.28;;;0.24;87.74
74218;BME280;62579;47.288;18.646;2022-12-15T00:49:02;98936.06;;;0.27;87.72
74218;BME280;62579;47.288;18.646;2022-12-15T00:51:27;98925.66;;;0.20;88.08
74218;BME280;62579;47.288;18.646;2022-12-15T00:54:11;98930.72;;;0.09;88.62
74218;BME280;62579;47.288;18.646;2022-12-15T00:56:55;98920.34;;;0.02;89.01
74218;BME280;62579;47.288;18.646;2022-12-15T00:59:39;98934.13;;;0.00;89.47
74218;BME280;62579;47.288;18.646;2022-12-15T01:02:23;98944.72;;;0.13;88.80
74218;BME280;62579;47.288;18.646;2022-12-15T01:05:08;98954.19;;;0.14;88.88
74218;BME280;62579;47.288;18.646;2022-12-15T01:07:51;98939.31;;;0.22;88.17
74218;BME280;62579;47.288;18.646;2022-12-15T01:10:36;98943.94;;;0.22;88.58
74218;BME280;62579;47.288;18.646;2022-12-15T01:13:20;98934.72;;;0.23;88.69
74218;BME280;62579;47.288;18.646;2022-12-15T01:16:11;98938.47;;;0.16;88.82
74218;BME280;62579;47.288;18.646;2022-12-15T01:18:55;98948.09;;;0.23;88.37
74218;BME280;62579;47.288;18.646;2022-12-15T01:21:39;98943.34;;;0.18;88.72
74218;BME280;62579;47.288;18.646;2022-12-15T01:24:04;98942.31;;;0.15;89.03
74218;BME280;62579;47.288;18.646;2022-12-15T01:26:29;98947.53;;;0.19;88.91
74218;BME280;62579;47.288;18.646;2022-12-15T01:28:55;98946.31;;;0.29;88.36
74218;BME280;62579;47.288;18.646;2022-12-15T01:31:20;98940.50;;;0.30;88.05
74218;BME280;62579;47.288;18.646;2022-12-15T01:33:46;98947.34;;;0.31;88.24
74218;BME280;62579;47.288;18.646;2022-12-15T01:36:11;98949.75;;;0.29;88.45
74218;BME280;62579;47.288;18.646;2022-12-15T01:38:36;98951.38;;;0.27;88.42
74218;BME280;62579;47.288;18.646;2022-12-15T01:41:05;98950.31;;;0.33;88.21
74218;BME280;62579;47.288;18.646;2022-12-15T01:43:33;98936.19;;;0.33;88.39
74218;BME280;62579;47.288;18.646;2022-12-15T01:46:08;98941.53;;;0.33;88.21
74218;BME280;62579;47.288;18.646;2022-12-15T01:48:59;98945.72;;;0.25;88.60
74218;BME280;62579;47.288;18.646;2022-12-15T01:51:34;98939.19;;;0.35;88.36
74218;BME280;62579;47.288;18.646;2022-12-15T01:54:30;98946.28;;;0.38;88.17
74218;BME280;62579;47.288;18.646;2022-12-15T01:57:13;98946.59;;;0.40;88.10
74218;BME280;62579;47.288;18.646;2022-12-15T01:59:44;98940.03;;;0.41;87.91
74218;BME280;62579;47.288;18.646;2022-12-15T02:02:14;98936.94;;;0.42;87.96
74218;BME280;62579;47.288;18.646;2022-12-15T02:04:40;98952.25;;;0.42;87.87
74218;BME280;62579;47.288;18.646;2022-12-15T02:07:08;98954.03;;;0.36;87.59
74218;BME280;62579;47.288;18.646;2022-12-15T02:09:35;98954.78;;;0.36;87.52
74218;BME280;62579;47.288;18.646;2022-12-15T02:17:43;98955.66;;;0.33;88.02
74218;BME280;62579;47.288;18.646;2022-12-15T02:28:16;98943.63;;;0.38;87.68
74218;BME280;62579;47.288;18.646;2022-12-15T02:31:03;98947.22;;;0.35;87.80
74218;BME280;62579;47.288;18.646;2022-12-15T02:33:58;98949.16;;;0.34;87.67
74218;BME280;62579;47.288;18.646;2022-12-15T02:36:34;98968.75;;;0.31;88.01
74218;BME280;62579;47.288;18.646;2022-12-15T02:39:01;98969.06;;;0.24;88.00
74218;BME280;62579;47.288;18.646;2022-12-15T02:41:38;98969.50;;;0.23;88.04
74218;BME280;62579;47.288;18.646;2022-12-15T02:44:09;98964.63;;;0.21;88.24
74218;BME280;62579;47.288;18.646;2022-12-15T02:46:58;98968.47;;;0.20;88.35
74218;BME280;62579;47.288;18.646;2022-12-15T02:58:37;98954.94;;;0.24;88.45
74218;BME280;62579;47.288;18.646;2022-12-15T03:01:29;98951.66;;;0.20;88.19
74218;BME280;62579;47.288;18.646;2022-12-15T03:03:58;98949.75;;;0.20;87.98
74218;BME280;62579;47.288;18.646;2022-12-15T03:06:26;98944.84;;;0.19;87.85
74218;BME280;62579;47.288;18.646;2022-12-15T03:08:52;98946.31;;;0.20;87.74
74218;BME280;62579;47.288;18.646;2022-12-15T03:11:17;98953.62;;;0.10;88.16
74218;BME280;62579;47.288;18.646;2022-12-15T03:13:43;98959.56;;;0.05;87.88
74218;BME280;62579;47.288;18.646;2022-12-15T03:16:08;98958.06;;;-0.05;88.13
74218;BME280;62579;47.288;18.646;2022-12-15T03:18:34;98961.94;;;-0.06;88.45
74218;BME280;62579;47.288;18.646;2022-12-15T03:20:59;98961.34;;;-0.10;88.46
74218;BME280;62579;47.288;18.646;2022-12-15T03:23:24;98969.34;;;-0.10;88.57
74218;BME280;62579;47.288;18.646;2022-12-15T03:25:50;98973.06;;;-0.08;88.11
74218;BME280;62579;47.288;18.646;2022-12-15T03:28:15;98970.56;;;-0.11;88.02
74218;BME280;62579;47.288;18.646;2022-12-15T03:30:41;98975.59;;;-0.13;87.96
74218;BME280;62579;47.288;18.646;2022-12-15T03:33:06;98975.31;;;-0.24;88.25
74218;BME280;62579;47.288;18.646;2022-12-15T03:35:32;98974.81;;;-0.32;88.58
74218;BME280;62579;47.288;18.646;2022-12-15T03:37:58;98972.47;;;-0.30;88.55
74218;BME280;62579;47.288;18.646;2022-12-15T03:40:23;98970.06;;;-0.37;88.37
74218;BME280;62579;47.288;18.646;2022-12-15T03:42:48;98965.91;;;-0.38;88.38
74218;BME280;62579;47.288;18.646;2022-12-15T03:45:19;98958.78;;;-0.41;88.47
74218;BME280;62579;47.288;18.646;2022-12-15T03:47:45;98967.09;;;-0.39;88.11
74218;BME280;62579;47.288;18.646;2022-12-15T03:50:13;98970.94;;;-0.40;88.26
74218;BME280;62579;47.288;18.646;2022-12-15T03:52:39;98968.72;;;-0.41;88.09
74218;BME280;62579;47.288;18.646;2022-12-15T03:55:05;98979.84;;;-0.43;88.08
74218;BME280;62579;47.288;18.646;2022-12-15T03:57:32;98989.66;;;-0.49;88.54
74218;BME280;62579;47.288;18.646;2022-12-15T03:59:57;98989.19;;;-0.47;88.66
74218;BME280;62579;47.288;18.646;2022-12-15T04:02:22;98986.25;;;-0.40;88.36
74218;BME280;62579;47.288;18.646;2022-12-15T04:04:48;98994.37;;;-0.53;88.37
74218;BME280;62579;47.288;18.646;2022-12-15T04:07:13;98993.94;;;-0.51;88.46
74218;BME280;62579;47.288;18.646;2022-12-15T04:09:39;98998.97;;;-0.63;88.98
74218;BME280;62579;47.288;18.646;2022-12-15T04:12:05;99005.19;;;-0.66;89.58
74218;BME280;62579;47.288;18.646;2022-12-15T04:14:30;99016.50;;;-0.52;88.89
74218;BME280;62579;47.288;18.646;2022-12-15T04:16:57;99017.37;;;-0.55;88.89
74218;BME280;62579;47.288;18.646;2022-12-15T04:19:23;99017.22;;;-0.61;89.35
74218;BME280;62579;47.288;18.646;2022-12-15T04:22:07;99025.53;;;-0.59;89.70
74218;BME280;62579;47.288;18.646;2022-12-15T04:24:32;99032.66;;;-0.56;89.92
74218;BME280;62579;47.288;18.646;2022-12-15T04:27:16;99036.38;;;-0.53;90.19
74218;BME280;62579;47.288;18.646;2022-12-15T04:30:00;99038.63;;;-0.52;90.22
74218;BME280;62579;47.288;18.646;2022-12-15T04:32:44;99054.53;;;-0.48;89.90
74218;BME280;62579;47.288;18.646;2022-12-15T04:35:29;99061.81;;;-0.49;89.87
74218;BME280;62579;47.288;18.646;2022-12-15T04:38:15;99074.88;;;-0.42;89.54
74218;BME280;62579;47.288;18.646;2022-12-15T04:40:59;99085.75;;;-0.36;88.95
74218;BME280;62579;47.288;18.646;2022-12-15T04:43:43;99089.56;;;-0.46;89.65
74218;BME280;62579;47.288;18.646;2022-12-15T04:46:27;99089.44;;;-0.43;89.57
74218;BME280;62579;47.288;18.646;2022-12-15T04:49:11;99082.47;;;-0.40;89.62
74218;BME280;62579;47.288;18.646;2022-12-15T04:51:56;99081.72;;;-0.41;89.72
74218;BME280;62579;47.288;18.646;2022-12-15T04:54:40;99083.47;;;-0.47;90.80
74218;BME280;62579;47.288;18.646;2022-12-15T04:57:24;99083.94;;;-0.48;91.38
74218;BME280;62579;47.288;18.646;2022-12-15T05:00:09;99067.44;;;-0.47;91.42
74218;BME280;62579;47.288;18.646;2022-12-15T05:02:53;99068.78;;;-0.42;91.04
74218;BME280;62579;47.288;18.646;2022-12-15T05:05:37;99075.50;;;-0.38;90.37
74218;BME280;62579;47.288;18.646;2022-12-15T05:08:21;99090.97;;;-0.33;89.96
74218;BME280;62579;47.288;18.646;2022-12-15T05:11:05;99091.09;;;-0.36;89.50
74218;BME280;62579;47.288;18.646;2022-12-15T05:13:49;99084.97;;;-0.46;89.85
74218;BME280;62579;47.288;18.646;2022-12-15T05:16:33;99089.56;;;-0.46;89.75
74218;BME280;62579;47.288;18.646;2022-12-15T05:19:17;99087.47;;;-0.51;89.29
74218;BME280;62579;47.288;18.646;2022-12-15T05:22:01;99077.66;;;-0.54;89.45
74218;BME280;62579;47.288;18.646;2022-12-15T05:24:45;99079.53;;;-0.64;89.22
74218;BME280;62579;47.288;18.646;2022-12-15T05:27:29;99088.59;;;-0.62;89.17
74218;BME280;62579;47.288;18.646;2022-12-15T05:30:13;99099.00;;;-0.64;89.10
74218;BME280;62579;47.288;18.646;2022-12-15T05:32:57;99104.63;;;-0.62;89.13
74218;BME280;62579;47.288;18.646;2022-12-15T05:35:27;99120.81;;;-0.65;88.97
74218;BME280;62579;47.288;18.646;2022-12-15T05:37:52;99117.87;;;-0.58;88.58
74218;BME280;62579;47.288;18.646;2022-12-15T05:40:17;99109.50;;;-0.69;89.13
74218;BME280;62579;47.288;18.646;2022-12-15T05:42:42;99116.66;;;-0.66;89.07
74218;BME280;62579;47.288;18.646;2022-12-15T05:45:08;99125.53;;;-0.69;88.91
74218;BME280;62579;47.288;18.646;2022-12-15T05:47:34;99130.88;;;-0.69;88.87
74218;BME280;62579;47.288;18.646;2022-12-15T05:49:59;99136.78;;;-0.74;88.79
74218;BME280;62579;47.288;18.646;2022-12-15T05:52:25;99140.97;;;-0.73;88.88
74218;BME280;62579;47.288;18.646;2022-12-15T05:54:50;99143.00;;;-0.77;88.77
74218;BME280;62579;47.288;18.646;2022-12-15T05:57:15;99156.13;;;-0.92;89.32
74218;BME280;62579;47.288;18.646;2022-12-15T05:59:41;99171.59;;;-0.87;89.31
74218;BME280;62579;47.288;18.646;2022-12-15T06:02:06;99188.28;;;-0.74;88.67
74218;BME280;62579;47.288;18.646;2022-12-15T06:04:31;99181.81;;;-0.85;89.32
74218;BME280;62579;47.288;18.646;2022-12-15T06:06:57;99189.34;;;-0.93;89.67
74218;BME280;62579;47.288;18.646;2022-12-15T06:09:22;99191.06;;;-0.99;90.25
74218;BME280;62579;47.288;18.646;2022-12-15T06:11:47;99186.37;;;-0.95;90.63
74218;BME280;62579;47.288;18.646;2022-12-15T06:14:13;99188.22;;;-0.83;89.42
74218;BME280;62579;47.288;18.646;2022-12-15T06:16:38;99184.84;;;-0.96;90.28
74218;BME280;62579;47.288;18.646;2022-12-15T06:19:03;99185.91;;;-0.93;90.16
74218;BME280;62579;47.288;18.646;2022-12-15T06:21:31;99177.34;;;-0.88;90.10
74218;BME280;62579;47.288;18.646;2022-12-15T06:23:57;99178.09;;;-0.88;90.01
74218;BME280;62579;47.288;18.646;2022-12-15T06:26:28;99179.28;;;-0.89;90.31
74218;BME280;62579;47.288;18.646;2022-12-15T06:28:56;99185.13;;;-0.81;89.91
74218;BME280;62579;47.288;18.646;2022-12-15T06:31:22;99199.66;;;-0.82;89.59
74218;BME280;62579;47.288;18.646;2022-12-15T06:33:52;99200.97;;;-0.87;89.55
74218;BME280;62579;47.288;18.646;2022-12-15T06:36:18;99213.63;;;-1.00;90.36
74218;BME280;62579;47.288;18.646;2022-12-15T06:38:44;99207.53;;;-1.00;90.76
74218;BME280;62579;47.288;18.646;2022-12-15T06:41:13;99203.16;;;-1.07;91.71
74218;BME280;62579;47.288;18.646;2022-12-15T06:43:39;99209.25;;;-1.06;91.84
74218;BME280;62579;47.288;18.646;2022-12-15T06:46:04;99218.22;;;-1.00;91.47
74218;BME280;62579;47.288;18.646;2022-12-15T06:48:30;99222.13;;;-0.92;91.21
74218;BME280;62579;47.288;18.646;2022-12-15T06:50:56;99238.72;;;-0.97;91.40
74218;BME280;62579;47.288;18.646;2022-12-15T06:53:26;99255.84;;;-0.86;91.01
74218;BME280;62579;47.288;18.646;2022-12-15T06:55:51;99260.34;;;-0.83;91.27
74218;BME280;62579;47.288;18.646;2022-12-15T06:58:16;99258.12;;;-0.84;91.86
74218;BME280;62579;47.288;18.646;2022-12-15T07:00:44;99270.59;;;-0.81;92.06
74218;BME280;62579;47.288;18.646;2022-12-15T07:03:14;99261.03;;;-0.70;91.91
74218;BME280;62579;47.288;18.646;2022-12-15T07:05:41;99258.25;;;-0.66;92.45
74218;BME280;62579;47.288;18.646;2022-12-15T07:08:08;99273.31;;;-0.59;92.29
74218;BME280;62579;47.288;18.646;2022-12-15T07:10:37;99280.41;;;-0.44;91.39
74218;BME280;62579;47.288;18.646;2022-12-15T07:13:02;99285.28;;;-0.42;91.40
74218;BME280;62579;47.288;18.646;2022-12-15T07:15:28;99269.41;;;-0.46;91.82
74218;BME280;62579;47.288;18.646;2022-12-15T07:17:54;99270.88;;;-0.45;92.33
74218;BME280;62579;47.288;18.646;2022-12-15T07:20:20;99266.47;;;-0.39;92.40
74218;BME280;62579;47.288;18.646;2022-12-15T07:22:50;99276.28;;;-0.36;92.57
74218;BME280;62579;47.288;18.646;2022-12-15T07:25:15;99290.91;;;-0.28;92.36
74218;BME280;62579;47.288;18.646;2022-12-15T07:27:41;99295.69;;;-0.23;92.19
74218;BME280;62579;47.288;18.646;2022-12-15T07:30:06;99307.31;;;-0.17;91.66
74218;BME280;62579;47.288;18.646;2022-12-15T07:32:32;99308.69;;;-0.12;91.49
74218;BME280;62579;47.288;18.646;2022-12-15T07:34:57;99320.31;;;-0.06;91.01
74218;BME280;62579;47.288;18.646;2022-12-15T07:37:23;99313.91;;;-0.09;91.14
74218;BME280;62579;47.288;18.646;2022-12-15T07:39:48;99302.56;;;-0.13;91.92
74218;BME280;62579;47.288;18.646;2022-12-15T07:42:13;99307.94;;;-0.13;92.36
74218;BME280;62579;47.288;18.646;2022-12-15T07:44:39;99305.44;;;-0.07;92.53
74218;BME280;62579;47.288;18.646;2022-12-15T07:47:04;99312.28;;;-0.06;92.77
74218;BME280;62579;47.288;18.646;2022-12-15T07:49:30;99305.31;;;-0.04;92.66
74218;BME280;62579;47.288;18.646;2022-12-15T07:51:55;99319.62;;;0.03;92.52
74218;BME280;62579;47.288;18.646;2022-12-15T07:54:22;99334.34;;;0.07;92.26
74218;BME280;62579;47.288;18.646;2022-12-15T07:56:48;99344.38;;;0.16;91.86
74218;BME280;62579;47.288;18.646;2022-12-15T07:59:13;99339.81;;;0.25;91.40
74218;BME280;62579;47.288;18.646;2022-12-15T08:01:38;99334.28;;;0.20;91.63
74218;BME280;62579;47.288;18.646;2022-12-15T08:04:04;99334.53;;;0.74;98.95
74218;BME280;62579;47.288;18.646;2022-12-15T08:06:29;99336.97;;;0.50;93.10
74218;BME280;62579;47.288;18.646;2022-12-15T08:08:54;99341.59;;;0.28;92.18
74218;BME280;62579;47.288;18.646;2022-12-15T08:11:21;99346.69;;;0.35;91.85
74218;BME280;62579;47.288;18.646;2022-12-15T08:13:47;99346.03;;;0.22;92.29
74218;BME280;62579;47.288;18.646;2022-12-15T08:16:12;99346.28;;;0.15;92.42
74218;BME280;62579;47.288;18.646;2022-12-15T08:18:38;99317.28;;;0.14;92.94
74218;BME280;62579;47.288;18.646;2022-12-15T08:21:05;99311.38;;;0.19;92.46
74218;BME280;62579;47.288;18.646;2022-12-15T08:23:31;99316.75;;;0.19;92.29
74218;BME280;62579;47.288;18.646;2022-12-15T08:26:05;99317.91;;;0.18;92.51
74218;BME280;62579;47.288;18.646;2022-12-15T08:28:32;99328.09;;;0.32;92.22
74218;BME280;62579;47.288;18.646;2022-12-15T08:31:06;99337.31;;;0.31;92.48
74218;BME280;62579;47.288;18.646;2022-12-15T08:33:32;99342.56;;;0.43;91.78
74218;BME280;62579;47.288;18.646;2022-12-15T08:36:01;99346.22;;;0.58;91.52
74218;BME280;62579;47.288;18.646;2022-12-15T08:38:28;99355.06;;;0.46;91.96
74218;BME280;62579;47.288;18.646;2022-12-15T08:40:54;99349.78;;;0.55;91.59
74218;BME280;62579;47.288;18.646;2022-12-15T08:43:19;99355.00;;;0.59;91.48
74218;BME280;62579;47.288;18.646;2022-12-15T08:45:45;99350.59;;;0.43;91.95
74218;BME280;62579;47.288;18.646;2022-12-15T08:48:10;99351.09;;;0.51;91.87
74218;BME280;62579;47.288;18.646;2022-12-15T08:50:36;99388.34;;;0.67;91.33
74218;BME280;62579;47.288;18.646;2022-12-15T08:53:01;99391.81;;;0.77;90.42
74218;BME280;62579;47.288;18.646;2022-12-15T08:55:26;99380.50;;;0.73;91.13
74218;BME280;62579;47.288;18.646;2022-12-15T08:57:53;99365.91;;;0.74;91.27
74218;BME280;62579;47.288;18.646;2022-12-15T09:00:18;99366.31;;;0.63;91.53
74218;BME280;62579;47.288;18.646;2022-12-15T09:02:44;99358.72;;;0.62;91.67
74218;BME280;62579;47.288;18.646;2022-12-15T09:05:09;99370.66;;;0.70;91.62
74218;BME280;62579;47.288;18.646;2022-12-15T09:07:35;99369.44;;;0.62;91.74
74218;BME280;62579;47.288;18.646;2022-12-15T09:10:00;99366.78;;;0.71;91.51
74218;BME280;62579;47.288;18.646;2022-12-15T09:12:26;99388.25;;;0.80;91.20
74218;BME280;62579;47.288;18.646;2022-12-15T09:14:51;99401.53;;;0.83;91.23
74218;BME280;62579;47.288;18.646;2022-12-15T09:17:16;99402.28;;;0.93;90.61
74218;BME280;62579;47.288;18.646;2022-12-15T09:19:42;99398.91;;;1.01;90.30
74218;BME280;62579;47.288;18.646;2022-12-15T09:22:07;99401.00;;;1.06;90.07
74218;BME280;62579;47.288;18.646;2022-12-15T09:24:33;99399.37;;;1.09;89.99
74218;BME280;62579;47.288;18.646;2022-12-15T09:26:58;99385.09;;;1.12;90.05
74218;BME280;62579;47.288;18.646;2022-12-15T09:29:23;99390.91;;;1.19;89.99
74218;BME280;62579;47.288;18.646;2022-12-15T09:31:49;99396.56;;;1.21;90.31
74218;BME280;62579;47.288;18.646;2022-12-15T09:34:14;99391.41;;;1.36;89.29
74218;BME280;62579;47.288;18.646;2022-12-15T09:36:40;99389.91;;;1.35;89.15
74218;BME280;62579;47.288;18.646;2022-12-15T09:39:06;99388.72;;;1.36;89.23
74218;BME280;62579;47.288;18.646;2022-12-15T09:41:34;99390.66;;;1.36;89.45
74218;BME280;62579;47.288;18.646;2022-12-15T09:44:12;99412.56;;;1.43;89.44
74218;BME280;62579;47.288;18.646;2022-12-15T09:49:49;99408.06;;;1.40;89.13
74218;BME280;62579;47.288;18.646;2022-12-15T09:52:20;99399.44;;;1.36;89.57
74218;BME280;62579;47.288;18.646;2022-12-15T09:54:47;99391.81;;;1.35;89.67
74218;BME280;62579;47.288;18.646;2022-12-15T09:57:15;99383.91;;;1.13;90.61
74218;BME280;62579;47.288;18.646;2022-12-15T09:59:59;99370.84;;;1.33;90.07
74218;BME280;62579;47.288;18.646;2022-12-15T10:03:08;99370.25;;;1.29;90.33
74218;BME280;62579;47.288;18.646;2022-12-15T10:08:21;99373.50;;;1.24;91.07
74218;BME280;62579;47.288;18.646;2022-12-15T10:10:54;99366.53;;;1.45;90.22
74218;BME280;62579;47.288;18.646;2022-12-15T10:13:30;99372.03;;;1.41;90.30
74218;BME280;62579;47.288;18.646;2022-12-15T10:16:02;99365.03;;;1.35;90.81
74218;BME280;62579;47.288;18.646;2022-12-15T10:18:37;99366.81;;;1.38;90.62
74218;BME280;62579;47.288;18.646;2022-12-15T10:21:04;99372.59;;;1.18;90.81
74218;BME280;62579;47.288;18.646;2022-12-15T10:23:38;99377.09;;;1.21;91.10
74218;BME280;62579;47.288;18.646;2022-12-15T10:26:30;99381.09;;;1.26;90.94
74218;BME280;62579;47.288;18.646;2022-12-15T10:31:44;99376.06;;;1.46;91.19
74218;BME280;62579;47.288;18.646;2022-12-15T10:34:35;99375.94;;;1.58;93.90
74218;BME280;62579;47.288;18.646;2022-12-15T10:37:02;99366.84;;;1.47;90.60
74218;BME280;62579;47.288;18.646;2022-12-15T10:39:42;99367.13;;;1.67;93.56
74218;BME280;62579;47.288;18.646;2022-12-15T10:42:10;99370.56;;;1.58;90.49
74218;BME280;62579;47.288;18.646;2022-12-15T10:44:38;99368.00;;;1.46;90.74
74218;BME280;62579;47.288;18.646;2022-12-15T10:47:16;99369.06;;;1.39;91.26
74218;BME280;62579;47.288;18.646;2022-12-15T10:49:42;99376.78;;;1.28;91.92
74218;BME280;62579;47.288;18.646;2022-12-15T10:52:19;99364.88;;;1.38;91.45
74218;BME280;62579;47.288;18.646;2022-12-15T10:54:48;99376.66;;;1.41;91.58
74218;BME280;62579;47.288;18.646;2022-12-15T10:57:25;99379.78;;;1.48;91.06
74218;BME280;62579;47.288;18.646;2022-12-15T11:00:05;99395.16;;;1.57;90.68
74218;BME280;62579;47.288;18.646;2022-12-15T11:02:43;99383.09;;;1.61;90.47
74218;BME280;62579;47.288;18.646;2022-12-15T11:07:51;99389.94;;;1.53;91.29
74218;BME280;62579;47.288;18.646;2022-12-15T11:10:28;99389.03;;;1.56;91.49
74218;BME280;62579;47.288;18.646;2022-12-15T11:13:18;99390.22;;;1.64;90.99
74218;BME280;62579;47.288;18.646;2022-12-15T11:15:47;99397.72;;;1.69;90.90
74218;BME280;62579;47.288;18.646;2022-12-15T11:18:25;99393.06;;;1.70;90.89
74218;BME280;62579;47.288;18.646;2022-12-15T11:21:21;99385.91;;;1.76;91.17
74218;BME280;62579;47.288;18.646;2022-12-15T11:24:07;99390.41;;;1.79;92.01
74218;BME280;62579;47.288;18.646;2022-12-15T11:26:49;99395.62;;;1.83;91.89
74218;BME280;62579;47.288;18.646;2022-12-15T11:32:25;99389.34;;;1.76;91.94
74218;BME280;62579;47.288;18.646;2022-12-15T11:34:52;99405.75;;;1.69;92.47
74218;BME280;62579;47.288;18.646;2022-12-15T11:46:25;99412.16;;;1.90;91.29
74218;BME280;62579;47.288;18.646;2022-12-15T11:51:46;99417.53;;;1.90;91.77
74218;BME280;62579;47.288;18.646;2022-12-15T12:00:18;99408.28;;;1.91;91.72
74218;BME280;62579;47.288;18.646;2022-12-15T12:07:59;99377.13;;;1.66;93.80
74218;BME280;62579;47.288;18.646;2022-12-15T12:10:55;99368.06;;;1.64;94.64
74218;BME280;62579;47.288;18.646;2022-12-15T12:16:02;99370.88;;;1.78;93.33
74218;BME280;62579;47.288;18.646;2022-12-15T12:21:16;99363.25;;;1.95;92.12
74218;BME280;62579;47.288;18.646;2022-12-15T12:24:03;99364.91;;;1.93;91.67
74218;BME280;62579;47.288;18.646;2022-12-15T12:26:40;99358.34;;;1.94;91.61
74218;BME280;62579;47.288;18.646;2022-12-15T12:29:16;99366.84;;;2.01;91.82
74218;BME280;62579;47.288;18.646;2022-12-15T12:37:03;99383.22;;;1.94;92.15
74218;BME280;62579;47.288;18.646;2022-12-15T12:39:34;99379.81;;;2.03;92.00
74218;BME280;62579;47.288;18.646;2022-12-15T12:42:06;99369.97;;;2.00;92.06
74218;BME280;62579;47.288;18.646;2022-12-15T12:44:36;99375.31;;;2.09;91.83
74218;BME280;62579;47.288;18.646;2022-12-15T12:47:14;99373.41;;;2.09;91.58
74218;BME280;62579;47.288;18.646;2022-12-15T12:49:44;99375.03;;;1.98;92.00
74218;BME280;62579;47.288;18.646;2022-12-15T12:52:28;99377.00;;;1.88;92.42
74218;BME280;62579;47.288;18.646;2022-12-15T12:57:55;99388.59;;;2.03;91.94
74218;BME280;62579;47.288;18.646;2022-12-15T13:00:28;99395.16;;;2.02;92.19
74218;BME280;62579;47.288;18.646;2022-12-15T13:05:38;99394.25;;;2.05;92.41
74218;BME280;62579;47.288;18.646;2022-12-15T13:10:30;99397.41;;;2.04;92.77
74218;BME280;62579;47.288;18.646;2022-12-15T13:12:57;99396.66;;;2.03;92.89
74218;BME280;62579;47.288;18.646;2022-12-15T13:17:54;99408.00;;;1.98;93.25
74218;BME280;62579;47.288;18.646;2022-12-15T13:20:30;99399.66;;;1.96;93.51
74218;BME280;62579;47.288;18.646;2022-12-15T13:44:17;99404.72;;;1.85;94.94
74218;BME280;62579;47.288;18.646;2022-12-15T13:46:46;99398.16;;;1.77;95.82
74218;BME280;62579;47.288;18.646;2022-12-15T13:49:35;99393.97;;;1.85;95.50
74218;BME280;62579;47.288;18.646;2022-12-15T13:55:04;99387.88;;;1.66;97.17
74218;BME280;62579;47.288;18.646;2022-12-15T13:57:33;99388.16;;;1.77;96.62
74218;BME280;62579;47.288;18.646;2022-12-15T14:00:19;99383.69;;;1.83;96.37
74218;BME280;62579;47.288;18.646;2022-12-15T14:02:44;99383.09;;;1.89;95.93
74218;BME280;62579;47.288;18.646;2022-12-15T14:07:50;99386.81;;;1.82;96.66
74218;BME280;62579;47.288;18.646;2022-12-15T14:10:24;99384.41;;;1.75;97.04
74218;BME280;62579;47.288;18.646;2022-12-15T14:12:54;99387.88;;;1.66;97.52
74218;BME280;62579;47.288;18.646;2022-12-15T14:15:27;99389.03;;;1.65;97.68
74218;BME280;62579;47.288;18.646;2022-12-15T14:17:54;99384.28;;;1.60;98.07
74218;BME280;62579;47.288;18.646;2022-12-15T14:20:25;99390.72;;;1.72;97.79
74218;BME280;62579;47.288;18.646;2022-12-15T14:22:51;99386.06;;;1.72;97.52
74218;BME280;62579;47.288;18.646;2022-12-15T14:25:21;99392.19;;;1.73;97.44
74218;BME280;62579;47.288;18.646;2022-12-15T14:27:48;99394.72;;;1.76;97.26
74218;BME280;62579;47.288;18.646;2022-12-15T14:30:24;99401.72;;;1.83;97.07
74218;BME280;62579;47.288;18.646;2022-12-15T14:33:12;99395.47;;;1.77;96.83
74218;BME280;62579;47.288;18.646;2022-12-15T14:35:46;99401.72;;;1.74;97.38
74218;BME280;62579;47.288;18.646;2022-12-15T14:38:15;99401.41;;;1.81;97.05
74218;BME280;62579;47.288;18.646;2022-12-15T14:40:42;99397.25;;;1.80;97.10
74218;BME280;62579;47.288;18.646;2022-12-15T14:43:17;99405.31;;;1.80;97.21
74218;BME280;62579;47.288;18.646;2022-12-15T14:45:46;99423.63;;;1.72;97.59
74218;BME280;62579;47.288;18.646;2022-12-15T14:48:29;99415.44;;;1.76;97.62
74218;BME280;62579;47.288;18.646;2022-12-15T14:50:58;99408.44;;;1.78;97.30
74218;BME280;62579;47.288;18.646;2022-12-15T14:53:27;99416.34;;;1.82;97.21
74218;BME280;62579;47.288;18.646;2022-12-15T14:55:55;99427.50;;;1.80;97.02
74218;BME280;62579;47.288;18.646;2022-12-15T14:58:29;99416.94;;;1.77;97.37
74218;BME280;62579;47.288;18.646;2022-12-15T15:00:56;99412.72;;;1.67;98.18
74218;BME280;62579;47.288;18.646;2022-12-15T15:03:38;99418.72;;;1.71;98.03
74218;BME280;62579;47.288;18.646;2022-12-15T15:08:42;99413.50;;;1.58;98.64
74218;BME280;62579;47.288;18.646;2022-12-15T15:13:48;99411.25;;;1.66;98.44
74218;BME280;62579;47.288;18.646;2022-12-15T15:16:18;99404.09;;;1.63;98.80